Aeroporto :
LOGIN :

Iscrizione | Disclaimer

   EN    FR    IT 

 










Sommario :    VFR   VFR Marginale   IFR   IFR Intensivo   IFR Molto Intensivo
Visibilità : 
Base nubi : 
>= 8 km
>= 3000ft
5 / 8 km
1000 / 3000 ft
1500m / 5 km
500 / 1000 ft
800 / 1500m
200 / 500 ft
< 800m
< 200 ft
Simboli :   Temporali  Nebbia  Neve Forte  Precipitazioni Forti  Vento > 20 kt
SIGMETs :   Varie  Temporali  Ghiacco  Turbolenza  Onda orograficha  Ceneri Vulcaniche






- Altitudine del aeroporto : 400 ft
- Codice IATA : BNX


LQBK - Banja Luka

ULTIMO METAR :
  • 150700Z 11004KT 050V160 6000 OVC010 09/08 Q1011 NOSIG

METARs OBSOLETI :
  • 150630Z 15003KT 110V180 9999 OVC010 09/08 Q1011 NOSIG
  • 150600Z 15002KT 6000 OVC010 09/08 Q1011 NOSIG
  • 150530Z 12002KT 5000 BR OVC010 09/08 Q1011 NOSIG
  • 150500Z 14002KT 5000 BR OVC010 09/08 Q1011 NOSIG
  • 150430Z 13002KT 4000 BR SCT003 OVC013 09/08 Q1011 NOSIG

TAF TAF LQBK
Valido dal 15 a 06 ore il 16 a 06 ore UTC


150500Z 1506/1606 07005KT 9999 SCT030 TX15/1514Z TN09/1506Z
TEMPO 1506/1510 2000 BR BKN007 OVC020
PROB40
TEMPO 1520/1606 17010KT



MetMap, La meteo Aeronautica in un colpo d'occhio ! - Copyright ORBIFLY Dicembre 2007 - Disclaimer

ORBIFLY MET'MAP TEAM :

Programmazione e sviluppo : Alexandra Zaïnal
Concezione e sviluppo : Baudouin d'Aumeries
Co-Programmazione e sviluppo : Marc-Olivier Méhu
Supporto tecnico e logistico : Manuel Goepfert
Aiuto per la traduzione : Arnaldo La Scala

Contatto : metmap@orbifly.com




FONTI E CREDITI :

   NOAA